FB729 YCBG-YCBG
Flight info
| Callsign | FB729 |
|---|---|
| Flight time | 0h 7m |
| Altitude | 2500 |
| Route | VFR |
| Aircraft | AS50/M-SDE3FGHIRWY/LB1 |
Departure
| Time | 2026-04-20 06:59 |
|---|---|
| Airport | Cambridge Aerodrome (YCBG) |
Arrival
| Time | 2026-04-20 07:06 |
|---|---|
| Airport | Cambridge Aerodrome (YCBG) |
| Time | Latitude | Longitude | Altitude | Speed | Heading |
|---|---|---|---|---|---|
| 2026-04-20 06:48 | -42.82931 | 147.47513 | 36 ft | 0 kts | 283° |
| 2026-04-20 06:57 | -42.82931 | 147.47511 | 45 ft | 0 kts | 274° |
| 2026-04-20 06:58 | -42.82928 | 147.47507 | 185 ft | 2 kts | 301° |
| 2026-04-20 06:58 | -42.82818 | 147.47588 | 357 ft | 35 kts | 32° |
| 2026-04-20 06:58 | -42.82547 | 147.47948 | 477 ft | 67 kts | 44° |
| 2026-04-20 06:58 | -42.82196 | 147.48452 | 645 ft | 77 kts | 43° |
| 2026-04-20 06:59 | -42.81824 | 147.48966 | 862 ft | 76 kts | 41° |
| 2026-04-20 06:59 | -42.81452 | 147.49442 | 1139 ft | 72 kts | 38° |
| 2026-04-20 06:59 | -42.81066 | 147.49898 | 1437 ft | 75 kts | 34° |
| 2026-04-20 06:59 | -42.80658 | 147.50350 | 1818 ft | 76 kts | 33° |
| 2026-04-20 07:00 | -42.80356 | 147.50951 | 2267 ft | 79 kts | 61° |
| 2026-04-20 07:00 | -42.80102 | 147.51615 | 2661 ft | 79 kts | 63° |
| 2026-04-20 07:00 | -42.79855 | 147.52289 | 2824 ft | 80 kts | 63° |
| 2026-04-20 07:00 | -42.79614 | 147.52957 | 2898 ft | 78 kts | 63° |
| 2026-04-20 07:01 | -42.79372 | 147.53620 | 2940 ft | 78 kts | 63° |
| 2026-04-20 07:01 | -42.79127 | 147.54287 | 2932 ft | 78 kts | 63° |
| 2026-04-20 07:01 | -42.78879 | 147.54949 | 2914 ft | 78 kts | 63° |
| 2026-04-20 07:01 | -42.78630 | 147.55606 | 2906 ft | 78 kts | 62° |
| 2026-04-20 07:02 | -42.78379 | 147.56266 | 2891 ft | 79 kts | 62° |
| 2026-04-20 07:02 | -42.78127 | 147.56919 | 2877 ft | 79 kts | 62° |
| 2026-04-20 07:02 | -42.77872 | 147.57578 | 2869 ft | 79 kts | 62° |
| 2026-04-20 07:02 | -42.77615 | 147.58238 | 2852 ft | 79 kts | 62° |
| 2026-04-20 07:03 | -42.77358 | 147.58898 | 2827 ft | 79 kts | 62° |
| 2026-04-20 07:03 | -42.77100 | 147.59559 | 2809 ft | 79 kts | 62° |
| 2026-04-20 07:03 | -42.76840 | 147.60221 | 2813 ft | 79 kts | 62° |
| 2026-04-20 07:03 | -42.76580 | 147.60883 | 2810 ft | 79 kts | 62° |
| 2026-04-20 07:04 | -42.76319 | 147.61545 | 2805 ft | 79 kts | 62° |
| 2026-04-20 07:04 | -42.76061 | 147.62201 | 2802 ft | 79 kts | 62° |
| 2026-04-20 07:04 | -42.75800 | 147.62865 | 2801 ft | 79 kts | 62° |
| 2026-04-20 07:04 | -42.75540 | 147.63533 | 2787 ft | 80 kts | 60° |
| 2026-04-20 07:05 | -42.75276 | 147.64186 | 2788 ft | 78 kts | 50° |
| 2026-04-20 07:05 | -42.74881 | 147.64653 | 2774 ft | 74 kts | 22° |
| 2026-04-20 07:05 | -42.74403 | 147.64765 | 2742 ft | 69 kts | 347° |
| 2026-04-20 07:05 | -42.73964 | 147.64529 | 2724 ft | 69 kts | 318° |
| 2026-04-20 07:06 | -42.73618 | 147.64121 | 2476 ft | 59 kts | 316° |
| 2026-04-20 07:06 | -42.73344 | 147.63906 | 2007 ft | 33 kts | 343° |
| 2026-04-20 07:06 | -42.73204 | 147.63929 | 1406 ft | 18 kts | 51° |
| 2026-04-20 07:06 | -42.73088 | 147.64018 | 1472 ft | 25 kts | 332° |
| 2026-04-20 07:07 | -42.72925 | 147.63672 | 1619 ft | 68 kts | 286° |
| 2026-04-20 07:07 | -42.72752 | 147.63009 | 1706 ft | 70 kts | 292° |
| 2026-04-20 07:07 | -42.72494 | 147.62809 | 1752 ft | 38 kts | 45° |
| 2026-04-20 07:07 | -42.72422 | 147.63032 | 1472 ft | 17 kts | 83° |
| 2026-04-20 07:08 | -42.72431 | 147.63104 | 1264 ft | 5 kts | 118° |
| 2026-04-20 07:08 | -42.72435 | 147.63123 | 1210 ft | 1 kts | 153° |
| 2026-04-20 07:08 | -42.72509 | 147.63207 | 1343 ft | 38 kts | 143° |
| 2026-04-20 07:08 | -42.72775 | 147.63530 | 1536 ft | 63 kts | 142° |
| 2026-04-20 07:09 | -42.73121 | 147.63982 | 1536 ft | 56 kts | 173° |
| 2026-04-20 07:09 | -42.73266 | 147.64032 | 1187 ft | 11 kts | 305° |
| 2026-04-20 07:09 | -42.73235 | 147.63912 | 1253 ft | 17 kts | 302° |
| 2026-04-20 07:09 | -42.73149 | 147.63720 | 1360 ft | 36 kts | 305° |
| 2026-04-20 07:10 | -42.72937 | 147.63322 | 1355 ft | 60 kts | 306° |
| 2026-04-20 07:10 | -42.72668 | 147.62885 | 1505 ft | 53 kts | 334° |
| 2026-04-20 07:10 | -42.72426 | 147.62995 | 1431 ft | 24 kts | 117° |
| 2026-04-20 07:10 | -42.72439 | 147.63077 | 1370 ft | 2 kts | 126° |
| 2026-04-20 07:11 | -42.72495 | 147.63138 | 1491 ft | 27 kts | 158° |
| 2026-04-20 07:11 | -42.72771 | 147.63440 | 1537 ft | 72 kts | 142° |
| 2026-04-20 07:11 | -42.73111 | 147.63980 | 1303 ft | 55 kts | 161° |
| 2026-04-20 07:11 | -42.73255 | 147.63949 | 1231 ft | 16 kts | 284° |
| 2026-04-20 07:12 | -42.73194 | 147.63743 | 1313 ft | 41 kts | 300° |